sensor_id;sensor_type;location;lat;lon;timestamp;P1;durP1;ratioP1;P2;durP2;ratioP2
46491;SDS011;32206;51.446;6.792;2022-10-16T00:01:20;6.20;;;3.60;;
46491;SDS011;32206;51.446;6.792;2022-10-16T00:03:47;7.65;;;3.53;;
46491;SDS011;32206;51.446;6.792;2022-10-16T00:06:14;5.28;;;3.40;;
46491;SDS011;32206;51.446;6.792;2022-10-16T00:08:41;10.80;;;4.30;;
46491;SDS011;32206;51.446;6.792;2022-10-16T00:13:34;4.00;;;3.60;;
46491;SDS011;32206;51.446;6.792;2022-10-16T00:16:01;6.45;;;3.47;;
46491;SDS011;32206;51.446;6.792;2022-10-16T00:18:27;6.30;;;3.85;;
46491;SDS011;32206;51.446;6.792;2022-10-16T00:20:53;8.57;;;4.20;;
46491;SDS011;32206;51.446;6.792;2022-10-16T00:23:19;6.72;;;4.38;;
46491;SDS011;32206;51.446;6.792;2022-10-16T00:25:53;6.47;;;3.38;;
46491;SDS011;32206;51.446;6.792;2022-10-16T00:28:23;7.90;;;3.95;;
46491;SDS011;32206;51.446;6.792;2022-10-16T00:30:49;5.72;;;3.80;;
46491;SDS011;32206;51.446;6.792;2022-10-16T00:33:14;6.72;;;3.83;;
46491;SDS011;32206;51.446;6.792;2022-10-16T00:35:40;10.32;;;3.50;;
46491;SDS011;32206;51.446;6.792;2022-10-16T00:38:05;6.60;;;3.67;;
46491;SDS011;32206;51.446;6.792;2022-10-16T00:40:31;10.52;;;4.00;;
46491;SDS011;32206;51.446;6.792;2022-10-16T00:42:57;11.27;;;3.95;;
46491;SDS011;32206;51.446;6.792;2022-10-16T00:45:22;8.40;;;3.97;;
46491;SDS011;32206;51.446;6.792;2022-10-16T00:47:48;5.55;;;3.47;;
46491;SDS011;32206;51.446;6.792;2022-10-16T00:50:27;5.93;;;3.55;;
46491;SDS011;32206;51.446;6.792;2022-10-16T00:52:56;4.85;;;2.83;;
46491;SDS011;32206;51.446;6.792;2022-10-16T00:55:23;6.03;;;3.70;;
46491;SDS011;32206;51.446;6.792;2022-10-16T00:57:50;5.78;;;3.55;;
46491;SDS011;32206;51.446;6.792;2022-10-16T01:00:24;5.25;;;3.38;;
46491;SDS011;32206;51.446;6.792;2022-10-16T01:02:55;4.47;;;3.17;;
46491;SDS011;32206;51.446;6.792;2022-10-16T01:05:23;4.28;;;3.88;;
46491;SDS011;32206;51.446;6.792;2022-10-16T01:11:01;3.65;;;3.35;;
46491;SDS011;32206;51.446;6.792;2022-10-16T01:13:40;7.30;;;3.97;;
46491;SDS011;32206;51.446;6.792;2022-10-16T01:16:13;8.90;;;4.53;;
46491;SDS011;32206;51.446;6.792;2022-10-16T01:18:44;7.55;;;4.10;;
46491;SDS011;32206;51.446;6.792;2022-10-16T01:21:27;8.50;;;5.35;;
46491;SDS011;32206;51.446;6.792;2022-10-16T01:29:29;7.78;;;4.60;;
46491;SDS011;32206;51.446;6.792;2022-10-16T01:32:20;10.43;;;5.97;;
46491;SDS011;32206;51.446;6.792;2022-10-16T01:37:15;9.23;;;4.57;;
46491;SDS011;32206;51.446;6.792;2022-10-16T01:39:46;6.80;;;4.47;;
46491;SDS011;32206;51.446;6.792;2022-10-16T01:42:16;7.50;;;4.82;;
46491;SDS011;32206;51.446;6.792;2022-10-16T01:44:47;5.88;;;4.25;;
46491;SDS011;32206;51.446;6.792;2022-10-16T01:47:14;7.93;;;4.82;;
46491;SDS011;32206;51.446;6.792;2022-10-16T01:49:42;5.10;;;4.57;;
46491;SDS011;32206;51.446;6.792;2022-10-16T01:52:11;7.53;;;4.93;;
46491;SDS011;32206;51.446;6.792;2022-10-16T01:54:42;8.27;;;4.95;;
46491;SDS011;32206;51.446;6.792;2022-10-16T01:57:10;5.75;;;4.95;;
46491;SDS011;32206;51.446;6.792;2022-10-16T01:59:41;12.23;;;5.72;;
46491;SDS011;32206;51.446;6.792;2022-10-16T02:02:10;10.73;;;5.38;;
46491;SDS011;32206;51.446;6.792;2022-10-16T02:04:44;6.88;;;5.25;;
46491;SDS011;32206;51.446;6.792;2022-10-16T02:07:12;6.13;;;5.18;;
46491;SDS011;32206;51.446;6.792;2022-10-16T02:09:39;7.30;;;4.45;;
46491;SDS011;32206;51.446;6.792;2022-10-16T02:14:54;5.45;;;3.17;;
46491;SDS011;32206;51.446;6.792;2022-10-16T02:17:20;5.55;;;3.60;;
46491;SDS011;32206;51.446;6.792;2022-10-16T02:19:46;7.38;;;3.75;;
46491;SDS011;32206;51.446;6.792;2022-10-16T02:22:15;4.43;;;2.88;;
46491;SDS011;32206;51.446;6.792;2022-10-16T02:25:01;9.82;;;2.95;;
46491;SDS011;32206;51.446;6.792;2022-10-16T02:27:58;3.33;;;2.03;;
46491;SDS011;32206;51.446;6.792;2022-10-16T02:30:36;9.98;;;2.95;;
46491;SDS011;32206;51.446;6.792;2022-10-16T02:33:09;2.75;;;2.10;;
46491;SDS011;32206;51.446;6.792;2022-10-16T02:35:38;7.80;;;2.78;;
46491;SDS011;32206;51.446;6.792;2022-10-16T02:38:06;3.90;;;1.80;;
46491;SDS011;32206;51.446;6.792;2022-10-16T02:40:33;4.75;;;1.75;;
46491;SDS011;32206;51.446;6.792;2022-10-16T02:43:00;4.43;;;2.13;;
46491;SDS011;32206;51.446;6.792;2022-10-16T02:45:28;1.58;;;1.48;;
46491;SDS011;32206;51.446;6.792;2022-10-16T02:47:54;4.97;;;1.63;;
46491;SDS011;32206;51.446;6.792;2022-10-16T02:50:19;2.20;;;1.58;;
46491;SDS011;32206;51.446;6.792;2022-10-16T02:52:45;4.13;;;1.60;;
46491;SDS011;32206;51.446;6.792;2022-10-16T02:55:11;2.22;;;1.27;;
46491;SDS011;32206;51.446;6.792;2022-10-16T02:57:37;2.65;;;1.58;;
46491;SDS011;32206;51.446;6.792;2022-10-16T03:00:06;2.47;;;1.42;;
46491;SDS011;32206;51.446;6.792;2022-10-16T03:02:34;2.00;;;1.35;;
46491;SDS011;32206;51.446;6.792;2022-10-16T03:05:00;2.95;;;1.45;;
46491;SDS011;32206;51.446;6.792;2022-10-16T03:07:26;1.95;;;1.30;;
46491;SDS011;32206;51.446;6.792;2022-10-16T03:09:51;1.55;;;1.42;;
46491;SDS011;32206;51.446;6.792;2022-10-16T03:12:17;2.70;;;1.33;;
46491;SDS011;32206;51.446;6.792;2022-10-16T03:14:42;2.80;;;1.30;;
46491;SDS011;32206;51.446;6.792;2022-10-16T03:17:08;2.47;;;1.13;;
46491;SDS011;32206;51.446;6.792;2022-10-16T03:19:34;1.95;;;1.10;;
46491;SDS011;32206;51.446;6.792;2022-10-16T03:22:00;1.23;;;1.13;;
46491;SDS011;32206;51.446;6.792;2022-10-16T03:24:26;3.90;;;1.30;;
46491;SDS011;32206;51.446;6.792;2022-10-16T03:26:52;1.75;;;1.42;;
46491;SDS011;32206;51.446;6.792;2022-10-16T03:29:17;5.60;;;1.92;;
46491;SDS011;32206;51.446;6.792;2022-10-16T03:31:43;2.72;;;0.95;;
46491;SDS011;32206;51.446;6.792;2022-10-16T03:34:08;1.42;;;1.10;;
46491;SDS011;32206;51.446;6.792;2022-10-16T03:36:34;3.88;;;1.20;;
46491;SDS011;32206;51.446;6.792;2022-10-16T03:39:00;2.58;;;1.13;;
46491;SDS011;32206;51.446;6.792;2022-10-16T03:41:25;3.05;;;0.98;;
46491;SDS011;32206;51.446;6.792;2022-10-16T03:43:51;2.47;;;1.00;;
46491;SDS011;32206;51.446;6.792;2022-10-16T03:46:16;3.53;;;0.85;;
46491;SDS011;32206;51.446;6.792;2022-10-16T03:48:42;2.40;;;1.30;;
46491;SDS011;32206;51.446;6.792;2022-10-16T03:51:08;2.95;;;1.15;;
46491;SDS011;32206;51.446;6.792;2022-10-16T03:53:33;5.15;;;0.82;;
46491;SDS011;32206;51.446;6.792;2022-10-16T03:55:59;1.45;;;1.00;;
46491;SDS011;32206;51.446;6.792;2022-10-16T03:58:25;2.58;;;0.80;;
46491;SDS011;32206;51.446;6.792;2022-10-16T04:00:50;6.50;;;1.10;;
46491;SDS011;32206;51.446;6.792;2022-10-16T04:03:16;5.10;;;2.45;;
46491;SDS011;32206;51.446;6.792;2022-10-16T04:05:43;1.38;;;0.88;;
46491;SDS011;32206;51.446;6.792;2022-10-16T04:08:09;2.53;;;0.80;;
46491;SDS011;32206;51.446;6.792;2022-10-16T04:10:35;1.33;;;0.70;;
46491;SDS011;32206;51.446;6.792;2022-10-16T04:13:00;2.30;;;0.70;;
46491;SDS011;32206;51.446;6.792;2022-10-16T04:15:26;0.88;;;0.80;;
46491;SDS011;32206;51.446;6.792;2022-10-16T04:17:52;2.53;;;0.85;;
46491;SDS011;32206;51.446;6.792;2022-10-16T04:20:18;2.75;;;0.98;;
46491;SDS011;32206;51.446;6.792;2022-10-16T04:22:43;1.83;;;0.90;;
46491;SDS011;32206;51.446;6.792;2022-10-16T04:25:09;3.97;;;0.90;;
46491;SDS011;32206;51.446;6.792;2022-10-16T04:27:36;1.48;;;1.20;;
46491;SDS011;32206;51.446;6.792;2022-10-16T04:30:03;4.05;;;0.82;;
46491;SDS011;32206;51.446;6.792;2022-10-16T04:32:29;4.50;;;1.27;;
46491;SDS011;32206;51.446;6.792;2022-10-16T04:34:55;6.25;;;1.23;;
46491;SDS011;32206;51.446;6.792;2022-10-16T04:37:24;1.02;;;0.90;;
46491;SDS011;32206;51.446;6.792;2022-10-16T04:39:50;3.53;;;0.80;;
46491;SDS011;32206;51.446;6.792;2022-10-16T04:42:16;2.15;;;0.98;;
46491;SDS011;32206;51.446;6.792;2022-10-16T04:44:42;4.97;;;1.20;;
46491;SDS011;32206;51.446;6.792;2022-10-16T04:47:07;5.88;;;1.05;;
46491;SDS011;32206;51.446;6.792;2022-10-16T04:49:33;1.58;;;1.00;;
46491;SDS011;32206;51.446;6.792;2022-10-16T04:51:59;1.50;;;1.10;;
46491;SDS011;32206;51.446;6.792;2022-10-16T04:54:24;2.50;;;0.98;;
46491;SDS011;32206;51.446;6.792;2022-10-16T04:56:50;2.35;;;0.82;;
46491;SDS011;32206;51.446;6.792;2022-10-16T04:59:17;2.38;;;0.90;;
46491;SDS011;32206;51.446;6.792;2022-10-16T05:01:44;5.93;;;1.33;;
46491;SDS011;32206;51.446;6.792;2022-10-16T05:04:10;7.20;;;1.33;;
46491;SDS011;32206;51.446;6.792;2022-10-16T05:06:36;1.05;;;0.60;;
46491;SDS011;32206;51.446;6.792;2022-10-16T05:09:03;1.55;;;0.90;;
46491;SDS011;32206;51.446;6.792;2022-10-16T05:11:32;0.80;;;0.80;;
46491;SDS011;32206;51.446;6.792;2022-10-16T05:13:58;1.55;;;1.10;;
46491;SDS011;32206;51.446;6.792;2022-10-16T05:16:24;1.02;;;0.73;;
46491;SDS011;32206;51.446;6.792;2022-10-16T05:18:51;2.75;;;0.80;;
46491;SDS011;32206;51.446;6.792;2022-10-16T05:21:16;3.30;;;0.98;;
46491;SDS011;32206;51.446;6.792;2022-10-16T05:23:42;1.75;;;0.85;;
46491;SDS011;32206;51.446;6.792;2022-10-16T05:26:08;0.80;;;0.80;;
46491;SDS011;32206;51.446;6.792;2022-10-16T05:28:33;2.00;;;0.80;;
46491;SDS011;32206;51.446;6.792;2022-10-16T05:30:59;1.10;;;1.00;;
46491;SDS011;32206;51.446;6.792;2022-10-16T05:33:33;1.02;;;0.90;;
46491;SDS011;32206;51.446;6.792;2022-10-16T05:36:05;2.95;;;1.10;;
46491;SDS011;32206;51.446;6.792;2022-10-16T05:38:32;3.20;;;0.70;;
46491;SDS011;32206;51.446;6.792;2022-10-16T05:40:59;0.85;;;0.80;;
46491;SDS011;32206;51.446;6.792;2022-10-16T05:43:24;3.72;;;0.77;;
46491;SDS011;32206;51.446;6.792;2022-10-16T05:45:55;2.75;;;0.63;;
46491;SDS011;32206;51.446;6.792;2022-10-16T05:48:22;0.90;;;0.85;;
46491;SDS011;32206;51.446;6.792;2022-10-16T05:50:48;2.92;;;1.02;;
46491;SDS011;32206;51.446;6.792;2022-10-16T05:53:13;2.22;;;1.02;;
46491;SDS011;32206;51.446;6.792;2022-10-16T05:55:39;3.83;;;0.90;;
46491;SDS011;32206;51.446;6.792;2022-10-16T05:58:04;5.68;;;2.03;;
46491;SDS011;32206;51.446;6.792;2022-10-16T06:00:30;1.17;;;0.80;;
46491;SDS011;32206;51.446;6.792;2022-10-16T06:02:56;1.38;;;0.82;;
46491;SDS011;32206;51.446;6.792;2022-10-16T06:05:21;1.17;;;0.85;;
46491;SDS011;32206;51.446;6.792;2022-10-16T06:07:47;1.75;;;0.95;;
46491;SDS011;32206;51.446;6.792;2022-10-16T06:10:12;2.13;;;0.90;;
46491;SDS011;32206;51.446;6.792;2022-10-16T06:12:38;9.15;;;2.33;;
46491;SDS011;32206;51.446;6.792;2022-10-16T06:15:03;1.30;;;1.20;;
46491;SDS011;32206;51.446;6.792;2022-10-16T06:17:29;0.80;;;0.73;;
46491;SDS011;32206;51.446;6.792;2022-10-16T06:19:55;2.58;;;0.80;;
46491;SDS011;32206;51.446;6.792;2022-10-16T06:22:20;2.90;;;1.10;;
46491;SDS011;32206;51.446;6.792;2022-10-16T06:24:46;2.53;;;1.73;;
46491;SDS011;32206;51.446;6.792;2022-10-16T06:27:12;1.27;;;1.17;;
46491;SDS011;32206;51.446;6.792;2022-10-16T06:29:38;3.20;;;1.35;;
46491;SDS011;32206;51.446;6.792;2022-10-16T06:32:03;2.53;;;0.90;;
46491;SDS011;32206;51.446;6.792;2022-10-16T06:34:29;2.03;;;1.23;;
46491;SDS011;32206;51.446;6.792;2022-10-16T06:36:54;2.05;;;1.20;;
46491;SDS011;32206;51.446;6.792;2022-10-16T06:39:20;2.63;;;1.00;;
46491;SDS011;32206;51.446;6.792;2022-10-16T06:41:46;1.10;;;0.90;;
46491;SDS011;32206;51.446;6.792;2022-10-16T06:44:11;0.95;;;0.90;;
46491;SDS011;32206;51.446;6.792;2022-10-16T06:46:37;5.38;;;1.10;;
46491;SDS011;32206;51.446;6.792;2022-10-16T06:49:03;3.40;;;1.00;;
46491;SDS011;32206;51.446;6.792;2022-10-16T06:51:28;3.42;;;1.67;;
46491;SDS011;32206;51.446;6.792;2022-10-16T06:53:55;2.42;;;1.33;;
46491;SDS011;32206;51.446;6.792;2022-10-16T06:56:24;1.23;;;1.08;;
46491;SDS011;32206;51.446;6.792;2022-10-16T06:58:51;3.83;;;1.40;;
46491;SDS011;32206;51.446;6.792;2022-10-16T07:01:19;1.40;;;0.93;;
46491;SDS011;32206;51.446;6.792;2022-10-16T07:03:46;1.95;;;0.95;;
46491;SDS011;32206;51.446;6.792;2022-10-16T07:06:16;5.90;;;1.58;;
46491;SDS011;32206;51.446;6.792;2022-10-16T07:08:44;2.25;;;1.02;;
46491;SDS011;32206;51.446;6.792;2022-10-16T07:11:12;4.07;;;1.08;;
46491;SDS011;32206;51.446;6.792;2022-10-16T07:13:40;2.75;;;1.20;;
46491;SDS011;32206;51.446;6.792;2022-10-16T07:16:07;2.97;;;1.27;;
46491;SDS011;32206;51.446;6.792;2022-10-16T07:18:38;1.08;;;0.90;;
46491;SDS011;32206;51.446;6.792;2022-10-16T07:23:33;1.95;;;1.20;;
46491;SDS011;32206;51.446;6.792;2022-10-16T07:25:59;3.42;;;1.85;;
46491;SDS011;32206;51.446;6.792;2022-10-16T07:28:25;3.95;;;1.33;;
46491;SDS011;32206;51.446;6.792;2022-10-16T07:30:51;2.47;;;1.35;;
46491;SDS011;32206;51.446;6.792;2022-10-16T07:33:16;3.47;;;1.05;;
46491;SDS011;32206;51.446;6.792;2022-10-16T07:35:52;2.50;;;2.22;;
46491;SDS011;32206;51.446;6.792;2022-10-16T07:38:19;3.90;;;3.22;;
46491;SDS011;32206;51.446;6.792;2022-10-16T07:40:46;4.55;;;1.60;;
46491;SDS011;32206;51.446;6.792;2022-10-16T07:43:12;2.13;;;1.60;;
46491;SDS011;32206;51.446;6.792;2022-10-16T07:45:45;6.80;;;3.40;;
46491;SDS011;32206;51.446;6.792;2022-10-16T07:48:15;3.35;;;2.58;;
46491;SDS011;32206;51.446;6.792;2022-10-16T07:50:41;6.43;;;1.70;;
46491;SDS011;32206;51.446;6.792;2022-10-16T07:53:08;2.63;;;1.65;;
46491;SDS011;32206;51.446;6.792;2022-10-16T07:55:34;5.15;;;1.00;;
46491;SDS011;32206;51.446;6.792;2022-10-16T07:57:59;2.67;;;1.05;;
46491;SDS011;32206;51.446;6.792;2022-10-16T08:00:25;2.83;;;1.05;;
46491;SDS011;32206;51.446;6.792;2022-10-16T08:02:51;2.65;;;1.08;;
46491;SDS011;32206;51.446;6.792;2022-10-16T08:05:19;2.28;;;1.23;;
46491;SDS011;32206;51.446;6.792;2022-10-16T08:07:49;3.72;;;0.80;;
46491;SDS011;32206;51.446;6.792;2022-10-16T08:10:18;1.48;;;1.10;;
46491;SDS011;32206;51.446;6.792;2022-10-16T08:12:45;2.47;;;0.85;;
46491;SDS011;32206;51.446;6.792;2022-10-16T08:15:10;1.08;;;1.00;;
46491;SDS011;32206;51.446;6.792;2022-10-16T08:17:36;4.57;;;1.63;;
46491;SDS011;32206;51.446;6.792;2022-10-16T08:20:02;1.85;;;1.45;;
46491;SDS011;32206;51.446;6.792;2022-10-16T08:22:28;6.88;;;1.20;;
46491;SDS011;32206;51.446;6.792;2022-10-16T08:24:54;1.52;;;1.10;;
46491;SDS011;32206;51.446;6.792;2022-10-16T08:27:20;3.72;;;1.20;;
46491;SDS011;32206;51.446;6.792;2022-10-16T08:29:45;4.75;;;1.63;;
46491;SDS011;32206;51.446;6.792;2022-10-16T08:32:11;6.78;;;4.63;;
46491;SDS011;32206;51.446;6.792;2022-10-16T08:34:37;5.07;;;3.80;;
46491;SDS011;32206;51.446;6.792;2022-10-16T08:37:02;1.67;;;1.17;;
46491;SDS011;32206;51.446;6.792;2022-10-16T08:39:28;3.45;;;1.30;;
46491;SDS011;32206;51.446;6.792;2022-10-16T08:42:06;5.15;;;1.35;;
46491;SDS011;32206;51.446;6.792;2022-10-16T08:45:02;6.38;;;2.80;;
46491;SDS011;32206;51.446;6.792;2022-10-16T08:50:25;3.72;;;1.55;;
46491;SDS011;32206;51.446;6.792;2022-10-16T08:52:53;4.00;;;0.90;;
46491;SDS011;32206;51.446;6.792;2022-10-16T08:58:16;3.47;;;0.82;;
46491;SDS011;32206;51.446;6.792;2022-10-16T09:00:45;3.60;;;0.98;;
46491;SDS011;32206;51.446;6.792;2022-10-16T09:06:22;2.47;;;0.90;;
46491;SDS011;32206;51.446;6.792;2022-10-16T09:17:26;2.17;;;0.65;;
46491;SDS011;32206;51.446;6.792;2022-10-16T09:25:29;2.17;;;0.70;;
46491;SDS011;32206;51.446;6.792;2022-10-16T09:27:56;3.03;;;0.77;;
46491;SDS011;32206;51.446;6.792;2022-10-16T09:30:22;4.07;;;0.75;;
46491;SDS011;32206;51.446;6.792;2022-10-16T09:32:51;2.35;;;1.15;;
46491;SDS011;32206;51.446;6.792;2022-10-16T09:35:37;1.60;;;1.13;;
46491;SDS011;32206;51.446;6.792;2022-10-16T09:38:04;1.27;;;0.70;;
46491;SDS011;32206;51.446;6.792;2022-10-16T09:40:39;1.60;;;0.80;;
46491;SDS011;32206;51.446;6.792;2022-10-16T09:46:05;1.98;;;0.73;;
46491;SDS011;32206;51.446;6.792;2022-10-16T09:48:36;3.45;;;0.70;;
46491;SDS011;32206;51.446;6.792;2022-10-16T09:51:05;1.40;;;0.90;;
46491;SDS011;32206;51.446;6.792;2022-10-16T09:53:44;4.15;;;1.30;;
46491;SDS011;32206;51.446;6.792;2022-10-16T09:56:11;1.17;;;1.05;;
46491;SDS011;32206;51.446;6.792;2022-10-16T09:58:50;2.08;;;0.95;;
46491;SDS011;32206;51.446;6.792;2022-10-16T10:01:17;1.95;;;1.08;;
46491;SDS011;32206;51.446;6.792;2022-10-16T10:03:45;3.08;;;0.77;;
46491;SDS011;32206;51.446;6.792;2022-10-16T10:06:16;2.40;;;0.63;;
46491;SDS011;32206;51.446;6.792;2022-10-16T10:08:55;7.22;;;0.95;;
46491;SDS011;32206;51.446;6.792;2022-10-16T10:11:41;0.73;;;0.70;;
46491;SDS011;32206;51.446;6.792;2022-10-16T10:14:20;3.97;;;0.60;;
46491;SDS011;32206;51.446;6.792;2022-10-16T10:16:46;2.17;;;0.40;;
46491;SDS011;32206;51.446;6.792;2022-10-16T10:19:14;2.20;;;1.08;;
46491;SDS011;32206;51.446;6.792;2022-10-16T10:21:44;0.65;;;0.57;;
46491;SDS011;32206;51.446;6.792;2022-10-16T10:24:14;3.22;;;0.65;;
46491;SDS011;32206;51.446;6.792;2022-10-16T10:26:44;1.20;;;0.50;;
46491;SDS011;32206;51.446;6.792;2022-10-16T10:29:53;2.00;;;0.50;;
46491;SDS011;32206;51.446;6.792;2022-10-16T10:32:39;1.38;;;0.60;;
46491;SDS011;32206;51.446;6.792;2022-10-16T10:41:13;2.55;;;0.60;;
46491;SDS011;32206;51.446;6.792;2022-10-16T10:45:54;2.00;;;0.47;;
46491;SDS011;32206;51.446;6.792;2022-10-16T10:51:10;0.88;;;0.40;;
46491;SDS011;32206;51.446;6.792;2022-10-16T10:56:30;3.15;;;0.60;;
46491;SDS011;32206;51.446;6.792;2022-10-16T11:02:29;1.50;;;0.40;;
46491;SDS011;32206;51.446;6.792;2022-10-16T11:05:16;2.17;;;0.63;;
46491;SDS011;32206;51.446;6.792;2022-10-16T11:08:06;1.73;;;0.38;;
46491;SDS011;32206;51.446;6.792;2022-10-16T11:16:02;3.22;;;0.50;;
46491;SDS011;32206;51.446;6.792;2022-10-16T11:18:56;2.22;;;0.73;;
46491;SDS011;32206;51.446;6.792;2022-10-16T11:21:51;0.85;;;0.30;;
46491;SDS011;32206;51.446;6.792;2022-10-16T11:24:37;1.73;;;0.30;;
46491;SDS011;32206;51.446;6.792;2022-10-16T11:27:08;1.17;;;0.60;;
46491;SDS011;32206;51.446;6.792;2022-10-16T11:29:40;2.72;;;0.35;;
46491;SDS011;32206;51.446;6.792;2022-10-16T11:32:22;1.92;;;0.30;;
46491;SDS011;32206;51.446;6.792;2022-10-16T11:34:57;1.48;;;0.38;;
46491;SDS011;32206;51.446;6.792;2022-10-16T11:37:34;4.63;;;0.68;;
46491;SDS011;32206;51.446;6.792;2022-10-16T11:42:58;4.25;;;0.70;;
46491;SDS011;32206;51.446;6.792;2022-10-16T11:45:34;0.93;;;0.65;;
46491;SDS011;32206;51.446;6.792;2022-10-16T11:50:43;0.88;;;0.22;;
46491;SDS011;32206;51.446;6.792;2022-10-16T11:55:47;1.80;;;0.45;;
46491;SDS011;32206;51.446;6.792;2022-10-16T12:04:02;2.70;;;0.47;;
46491;SDS011;32206;51.446;6.792;2022-10-16T12:06:46;2.67;;;0.40;;
46491;SDS011;32206;51.446;6.792;2022-10-16T12:09:34;1.80;;;0.20;;
46491;SDS011;32206;51.446;6.792;2022-10-16T12:12:03;2.67;;;0.32;;
46491;SDS011;32206;51.446;6.792;2022-10-16T12:17:02;1.10;;;0.50;;
46491;SDS011;32206;51.446;6.792;2022-10-16T12:19:56;3.70;;;0.73;;
46491;SDS011;32206;51.446;6.792;2022-10-16T12:22:47;1.17;;;0.40;;
46491;SDS011;32206;51.446;6.792;2022-10-16T12:25:31;1.00;;;0.30;;
46491;SDS011;32206;51.446;6.792;2022-10-16T12:30:53;3.97;;;0.50;;
46491;SDS011;32206;51.446;6.792;2022-10-16T12:33:22;6.90;;;0.50;;
46491;SDS011;32206;51.446;6.792;2022-10-16T12:35:50;0.80;;;0.25;;
46491;SDS011;32206;51.446;6.792;2022-10-16T12:38:18;2.78;;;1.23;;
46491;SDS011;32206;51.446;6.792;2022-10-16T12:40:56;5.45;;;0.43;;
46491;SDS011;32206;51.446;6.792;2022-10-16T12:43:26;2.53;;;0.30;;
46491;SDS011;32206;51.446;6.792;2022-10-16T12:46:00;1.02;;;0.60;;
46491;SDS011;32206;51.446;6.792;2022-10-16T12:48:26;3.20;;;0.88;;
46491;SDS011;32206;51.446;6.792;2022-10-16T12:50:52;1.05;;;0.40;;
46491;SDS011;32206;51.446;6.792;2022-10-16T12:53:21;4.30;;;1.45;;
46491;SDS011;32206;51.446;6.792;2022-10-16T12:56:04;3.47;;;0.63;;
46491;SDS011;32206;51.446;6.792;2022-10-16T12:59:06;1.63;;;0.50;;
46491;SDS011;32206;51.446;6.792;2022-10-16T13:01:37;4.65;;;2.03;;
46491;SDS011;32206;51.446;6.792;2022-10-16T13:10:24;1.95;;;0.60;;
46491;SDS011;32206;51.446;6.792;2022-10-16T13:23:31;1.27;;;0.70;;
46491;SDS011;32206;51.446;6.792;2022-10-16T13:26:08;3.25;;;0.43;;
46491;SDS011;32206;51.446;6.792;2022-10-16T13:31:26;1.38;;;0.50;;
46491;SDS011;32206;51.446;6.792;2022-10-16T13:33:54;3.28;;;0.50;;
46491;SDS011;32206;51.446;6.792;2022-10-16T13:39:00;2.80;;;0.70;;
46491;SDS011;32206;51.446;6.792;2022-10-16T13:41:42;4.78;;;1.08;;
46491;SDS011;32206;51.446;6.792;2022-10-16T13:44:13;4.80;;;0.60;;
46491;SDS011;32206;51.446;6.792;2022-10-16T13:46:57;4.72;;;1.00;;
46491;SDS011;32206;51.446;6.792;2022-10-16T13:49:26;2.38;;;0.70;;
46491;SDS011;32206;51.446;6.792;2022-10-16T13:51:56;1.30;;;0.77;;
46491;SDS011;32206;51.446;6.792;2022-10-16T13:54:25;3.53;;;0.50;;
46491;SDS011;32206;51.446;6.792;2022-10-16T13:56:54;3.13;;;0.50;;
46491;SDS011;32206;51.446;6.792;2022-10-16T14:01:50;5.90;;;0.70;;
46491;SDS011;32206;51.446;6.792;2022-10-16T14:04:19;1.50;;;0.40;;
46491;SDS011;32206;51.446;6.792;2022-10-16T14:06:46;4.28;;;1.23;;
46491;SDS011;32206;51.446;6.792;2022-10-16T14:09:19;4.38;;;0.68;;
46491;SDS011;32206;51.446;6.792;2022-10-16T14:11:48;1.60;;;0.35;;
46491;SDS011;32206;51.446;6.792;2022-10-16T14:14:16;2.88;;;0.52;;
46491;SDS011;32206;51.446;6.792;2022-10-16T14:16:43;3.78;;;0.75;;
46491;SDS011;32206;51.446;6.792;2022-10-16T14:19:21;1.35;;;1.13;;
46491;SDS011;32206;51.446;6.792;2022-10-16T14:21:50;3.33;;;0.47;;
46491;SDS011;32206;51.446;6.792;2022-10-16T14:24:32;0.73;;;0.30;;
46491;SDS011;32206;51.446;6.792;2022-10-16T14:26:59;2.45;;;0.60;;
46491;SDS011;32206;51.446;6.792;2022-10-16T14:29:26;0.82;;;0.40;;
46491;SDS011;32206;51.446;6.792;2022-10-16T14:32:00;3.30;;;0.65;;
46491;SDS011;32206;51.446;6.792;2022-10-16T14:34:34;0.70;;;0.30;;
46491;SDS011;32206;51.446;6.792;2022-10-16T14:39:51;0.38;;;0.30;;
46491;SDS011;32206;51.446;6.792;2022-10-16T14:42:18;2.15;;;0.52;;
46491;SDS011;32206;51.446;6.792;2022-10-16T14:44:48;2.00;;;0.60;;
46491;SDS011;32206;51.446;6.792;2022-10-16T14:47:18;2.65;;;0.50;;
46491;SDS011;32206;51.446;6.792;2022-10-16T14:49:49;1.95;;;0.80;;
46491;SDS011;32206;51.446;6.792;2022-10-16T14:52:15;5.78;;;0.90;;
46491;SDS011;32206;51.446;6.792;2022-10-16T14:54:41;3.17;;;0.93;;
46491;SDS011;32206;51.446;6.792;2022-10-16T14:57:15;4.07;;;0.70;;
46491;SDS011;32206;51.446;6.792;2022-10-16T14:59:43;5.15;;;0.63;;
46491;SDS011;32206;51.446;6.792;2022-10-16T15:02:27;3.95;;;0.95;;
46491;SDS011;32206;51.446;6.792;2022-10-16T15:04:56;3.80;;;1.13;;
46491;SDS011;32206;51.446;6.792;2022-10-16T15:07:23;3.92;;;1.10;;
46491;SDS011;32206;51.446;6.792;2022-10-16T15:09:49;2.78;;;1.63;;
46491;SDS011;32206;51.446;6.792;2022-10-16T15:12:16;3.65;;;1.13;;
46491;SDS011;32206;51.446;6.792;2022-10-16T15:14:42;1.80;;;0.85;;
46491;SDS011;32206;51.446;6.792;2022-10-16T15:17:08;4.18;;;1.48;;
46491;SDS011;32206;51.446;6.792;2022-10-16T15:19:35;2.55;;;0.82;;
46491;SDS011;32206;51.446;6.792;2022-10-16T15:22:01;3.95;;;0.98;;
46491;SDS011;32206;51.446;6.792;2022-10-16T15:24:26;1.70;;;0.70;;
46491;SDS011;32206;51.446;6.792;2022-10-16T15:26:52;2.17;;;0.80;;
46491;SDS011;32206;51.446;6.792;2022-10-16T15:29:18;1.88;;;0.88;;
46491;SDS011;32206;51.446;6.792;2022-10-16T15:31:43;1.83;;;0.90;;
46491;SDS011;32206;51.446;6.792;2022-10-16T15:34:10;2.85;;;1.00;;
46491;SDS011;32206;51.446;6.792;2022-10-16T15:36:37;3.05;;;1.48;;
46491;SDS011;32206;51.446;6.792;2022-10-16T15:39:03;3.67;;;0.88;;
46491;SDS011;32206;51.446;6.792;2022-10-16T15:41:29;3.13;;;0.93;;
46491;SDS011;32206;51.446;6.792;2022-10-16T15:43:55;4.28;;;1.20;;
46491;SDS011;32206;51.446;6.792;2022-10-16T15:46:21;4.03;;;1.63;;
46491;SDS011;32206;51.446;6.792;2022-10-16T15:48:49;2.58;;;0.73;;
46491;SDS011;32206;51.446;6.792;2022-10-16T15:51:15;1.95;;;0.80;;
46491;SDS011;32206;51.446;6.792;2022-10-16T15:53:42;3.72;;;1.33;;
46491;SDS011;32206;51.446;6.792;2022-10-16T15:56:09;3.35;;;1.50;;
46491;SDS011;32206;51.446;6.792;2022-10-16T15:58:36;4.82;;;1.20;;
46491;SDS011;32206;51.446;6.792;2022-10-16T16:01:02;2.55;;;1.20;;
46491;SDS011;32206;51.446;6.792;2022-10-16T16:03:29;5.47;;;1.27;;
46491;SDS011;32206;51.446;6.792;2022-10-16T16:05:55;8.25;;;1.52;;
46491;SDS011;32206;51.446;6.792;2022-10-16T16:08:21;3.28;;;1.30;;
46491;SDS011;32206;51.446;6.792;2022-10-16T16:11:00;7.90;;;1.20;;
46491;SDS011;32206;51.446;6.792;2022-10-16T16:13:30;4.82;;;1.38;;
46491;SDS011;32206;51.446;6.792;2022-10-16T16:15:56;6.07;;;1.60;;
46491;SDS011;32206;51.446;6.792;2022-10-16T16:18:22;2.67;;;1.27;;
46491;SDS011;32206;51.446;6.792;2022-10-16T16:20:49;5.68;;;1.48;;
46491;SDS011;32206;51.446;6.792;2022-10-16T16:23:15;4.28;;;1.88;;
46491;SDS011;32206;51.446;6.792;2022-10-16T16:25:41;3.47;;;1.77;;
46491;SDS011;32206;51.446;6.792;2022-10-16T16:28:06;4.30;;;1.33;;
46491;SDS011;32206;51.446;6.792;2022-10-16T16:30:35;7.43;;;1.80;;
46491;SDS011;32206;51.446;6.792;2022-10-16T16:33:01;3.10;;;1.42;;
46491;SDS011;32206;51.446;6.792;2022-10-16T16:35:26;4.28;;;1.40;;
46491;SDS011;32206;51.446;6.792;2022-10-16T16:37:52;4.40;;;1.52;;
46491;SDS011;32206;51.446;6.792;2022-10-16T16:40:17;5.45;;;1.20;;
46491;SDS011;32206;51.446;6.792;2022-10-16T16:42:43;2.47;;;1.38;;
46491;SDS011;32206;51.446;6.792;2022-10-16T16:45:08;4.75;;;1.30;;
46491;SDS011;32206;51.446;6.792;2022-10-16T16:47:34;8.50;;;1.63;;
46491;SDS011;32206;51.446;6.792;2022-10-16T16:50:00;4.97;;;1.70;;
46491;SDS011;32206;51.446;6.792;2022-10-16T16:52:29;3.63;;;1.40;;
46491;SDS011;32206;51.446;6.792;2022-10-16T16:54:55;8.38;;;1.55;;